createdAt,value
2023-03-01T00:01:04.376Z,16.67
2023-03-01T00:03:34.436Z,16.93
2023-03-01T00:06:03.165Z,17.93
2023-03-01T00:08:32.098Z,14.50
2023-03-01T00:11:04.197Z,15.63
2023-03-01T00:13:32.452Z,17.37
2023-03-01T00:16:00.840Z,16.10
2023-03-01T00:18:29.199Z,17.20
2023-03-01T00:20:59.092Z,16.70
2023-03-01T00:23:27.871Z,16.27
2023-03-01T00:25:56.815Z,17.13
2023-03-01T00:28:25.267Z,17.07
2023-03-01T00:30:56.077Z,17.87
2023-03-01T00:33:24.516Z,17.83
2023-03-01T00:35:53.105Z,16.50
2023-03-01T00:38:22.809Z,18.03
2023-03-01T00:40:53.047Z,17.10
2023-03-01T00:43:21.681Z,17.83
2023-03-01T00:45:50.344Z,18.17
2023-03-01T00:48:18.778Z,19.70
2023-03-01T00:50:47.107Z,18.23
2023-03-01T00:53:15.544Z,15.70
2023-03-01T00:55:45.338Z,15.70
2023-03-01T00:58:13.780Z,18.10
2023-03-01T01:00:42.108Z,18.10
2023-03-01T01:03:10.476Z,17.03
2023-03-01T01:05:38.864Z,16.20
2023-03-01T01:08:08.061Z,16.90
2023-03-01T01:10:36.609Z,19.13
2023-03-01T01:13:06.348Z,17.57
2023-03-01T01:15:42.336Z,17.53
2023-03-01T01:18:10.785Z,17.10
2023-03-01T01:20:39.488Z,18.97
2023-03-01T01:23:08.826Z,17.87
2023-03-01T01:25:38.181Z,17.20
2023-03-01T01:28:07.943Z,16.30
2023-03-01T01:30:36.329Z,17.17
2023-03-01T01:33:04.738Z,17.67
2023-03-01T01:35:33.111Z,15.73
2023-03-01T01:38:01.508Z,17.40
2023-03-01T01:40:30.037Z,16.60
2023-03-01T01:42:58.408Z,17.53
2023-03-01T01:45:33.548Z,16.93
2023-03-01T01:48:03.672Z,17.93
2023-03-01T01:50:38.788Z,16.70
2023-03-01T01:53:09.569Z,18.03
2023-03-01T01:55:38.990Z,16.80
2023-03-01T01:58:09.427Z,18.03
2023-03-01T02:00:40.026Z,17.90
2023-03-01T02:03:11.120Z,16.83
2023-03-01T02:05:41.420Z,17.17
2023-03-01T02:08:11.095Z,17.40
2023-03-01T02:10:40.532Z,16.67
2023-03-01T02:13:09.179Z,17.93
2023-03-01T02:15:40.212Z,16.57
2023-03-01T02:18:09.254Z,17.50
2023-03-01T02:20:41.483Z,16.90
2023-03-01T02:23:10.112Z,18.60
2023-03-01T02:25:43.148Z,17.30
2023-03-01T02:28:15.298Z,16.47
2023-03-01T02:30:59.419Z,17.17
2023-03-01T02:33:29.876Z,17.60
2023-03-01T02:35:58.810Z,17.63
2023-03-01T02:38:27.627Z,16.63
2023-03-01T02:40:57.535Z,16.97
2023-03-01T02:43:27.040Z,16.07
2023-03-01T02:46:00.536Z,16.77
2023-03-01T02:48:29.170Z,17.70
2023-03-01T02:51:05.503Z,17.33
2023-03-01T02:53:38.076Z,16.63
2023-03-01T02:56:06.762Z,17.47
2023-03-01T02:58:41.477Z,16.47
2023-03-01T03:01:11.266Z,17.87
2023-03-01T03:03:39.717Z,18.00
2023-03-01T03:06:08.148Z,18.07
2023-03-01T03:08:36.556Z,18.77
2023-03-01T03:11:05.369Z,18.77
2023-03-01T03:13:33.866Z,16.00
2023-03-01T03:16:03.711Z,18.30
2023-03-01T03:18:33.322Z,17.53
2023-03-01T03:21:01.666Z,17.63
2023-03-01T03:23:30.990Z,18.53
2023-03-01T03:25:59.378Z,17.87
2023-03-01T03:28:27.810Z,16.73
2023-03-01T03:30:56.244Z,17.10
2023-03-01T03:33:24.875Z,17.27
2023-03-01T03:35:54.719Z,18.83
2023-03-01T03:38:23.251Z,17.83
2023-03-01T03:40:52.830Z,17.20
2023-03-01T03:43:22.110Z,18.80
2023-03-01T03:45:51.143Z,17.93
2023-03-01T03:48:19.810Z,18.10
2023-03-01T03:50:50.747Z,16.93
2023-03-01T03:53:21.012Z,17.70
2023-03-01T03:55:50.774Z,17.43
2023-03-01T03:58:20.581Z,16.73
2023-03-01T04:00:49.877Z,16.77
2023-03-01T04:03:19.653Z,15.50
2023-03-01T04:05:48.289Z,17.80
2023-03-01T04:08:17.097Z,18.67
2023-03-01T04:10:48.777Z,17.33
2023-03-01T04:13:20.180Z,17.83
2023-03-01T04:15:48.822Z,17.10
2023-03-01T04:18:17.865Z,18.50
2023-03-01T04:20:47.141Z,17.23
2023-03-01T04:23:17.102Z,18.13
2023-03-01T04:25:50.426Z,17.20
2023-03-01T04:28:18.902Z,17.20
2023-03-01T04:30:47.313Z,17.50
2023-03-01T04:33:15.756Z,18.27
2023-03-01T04:35:44.238Z,21.60
2023-03-01T04:38:12.565Z,18.07
2023-03-01T04:40:40.961Z,18.83
2023-03-01T04:43:11.493Z,18.40
2023-03-01T04:45:39.955Z,17.23
2023-03-01T04:48:08.644Z,17.13
2023-03-01T04:50:37.687Z,17.07
2023-03-01T04:53:06.136Z,17.57
2023-03-01T04:55:34.467Z,17.80
2023-03-01T04:58:02.834Z,18.97
2023-03-01T05:00:32.636Z,18.73
2023-03-01T05:03:03.075Z,17.23
2023-03-01T05:05:33.128Z,18.37
2023-03-01T05:08:02.433Z,18.20
2023-03-01T05:10:31.878Z,17.43
2023-03-01T05:13:00.465Z,18.40
2023-03-01T05:15:29.375Z,18.30
2023-03-01T05:18:00.252Z,17.37
2023-03-01T05:20:29.599Z,18.80
2023-03-01T05:22:59.637Z,18.63
2023-03-01T05:25:28.316Z,18.23
2023-03-01T05:27:56.728Z,19.03
2023-03-01T05:30:25.263Z,18.30
2023-03-01T05:32:56.919Z,17.77
2023-03-01T05:35:27.276Z,17.87
2023-03-01T05:37:55.978Z,18.70
2023-03-01T05:40:25.237Z,18.17
2023-03-01T05:42:55.362Z,18.50
2023-03-01T05:45:24.088Z,18.20
2023-03-01T05:47:52.772Z,18.47
2023-03-01T05:50:21.972Z,17.73
2023-03-01T05:52:52.597Z,20.10
2023-03-01T05:55:22.014Z,18.20
2023-03-01T05:57:50.989Z,18.60
2023-03-01T06:00:20.680Z,18.03
2023-03-01T06:02:49.065Z,17.70
2023-03-01T06:05:17.652Z,17.30
2023-03-01T06:07:46.089Z,19.37
2023-03-01T06:10:16.091Z,18.83
2023-03-01T06:12:44.798Z,17.90
2023-03-01T06:15:15.031Z,18.47
2023-03-01T06:17:44.374Z,18.97
2023-03-01T06:20:15.431Z,19.60
2023-03-01T06:22:44.332Z,18.23
2023-03-01T06:25:13.475Z,18.87
2023-03-01T06:27:43.994Z,16.70
2023-03-01T06:30:13.077Z,19.23
2023-03-01T06:32:43.010Z,19.33
2023-03-01T06:35:12.043Z,17.73
2023-03-01T06:37:40.761Z,18.90
2023-03-01T06:40:12.457Z,18.87
2023-03-01T06:42:41.987Z,17.90
2023-03-01T06:45:12.793Z,17.40
2023-03-01T06:47:41.383Z,20.70
2023-03-01T06:50:10.416Z,18.57
2023-03-01T06:52:38.778Z,18.50
2023-03-01T06:55:07.681Z,18.07
2023-03-01T06:57:36.257Z,19.40
2023-03-01T07:00:04.681Z,18.00
2023-03-01T07:02:34.743Z,19.47
2023-03-01T07:05:03.123Z,17.80
2023-03-01T07:07:31.419Z,19.57
2023-03-01T07:09:59.744Z,18.77
2023-03-01T07:12:28.142Z,19.80
2023-03-01T07:14:56.812Z,20.93
2023-03-01T07:17:25.274Z,22.23
2023-03-01T07:19:55.084Z,20.23
2023-03-01T07:22:23.480Z,17.93
2023-03-01T07:24:51.893Z,19.63
2023-03-01T07:27:20.172Z,19.37
2023-03-01T07:29:48.550Z,19.83
2023-03-01T07:32:17.118Z,19.13
2023-03-01T07:34:45.849Z,19.27
2023-03-01T07:37:15.428Z,21.00
2023-03-01T07:39:43.755Z,20.33
2023-03-01T07:42:12.181Z,17.87
2023-03-01T07:44:40.513Z,21.10
2023-03-01T07:47:08.939Z,21.20
2023-03-01T07:49:37.370Z,17.70
2023-03-01T07:52:05.953Z,18.90
2023-03-01T07:54:35.815Z,19.63
2023-03-01T07:57:04.528Z,20.20
2023-03-01T07:59:33.611Z,19.10
2023-03-01T08:02:02.313Z,20.60
2023-03-01T08:04:30.665Z,19.90
2023-03-01T08:06:59.254Z,19.37
2023-03-01T08:09:27.994Z,20.03
2023-03-01T08:12:00.527Z,19.47
2023-03-01T08:14:29.082Z,19.20
2023-03-01T08:16:57.624Z,20.00
2023-03-01T08:19:26.003Z,18.23
2023-03-01T08:21:54.431Z,18.87
2023-03-01T08:24:23.937Z,18.60
2023-03-01T08:26:52.465Z,20.43
2023-03-01T08:29:22.240Z,19.57
2023-03-01T08:31:51.004Z,20.93
2023-03-01T08:34:20.748Z,19.57
2023-03-01T08:36:49.301Z,19.00
2023-03-01T08:39:19.360Z,19.70
2023-03-01T08:41:48.410Z,20.27
2023-03-01T08:44:18.627Z,21.23
2023-03-01T08:46:48.507Z,17.97
2023-03-01T08:52:39.590Z,19.60
2023-03-01T08:55:08.714Z,20.30
2023-03-01T08:57:37.021Z,19.57
2023-03-01T09:00:09.576Z,21.80
2023-03-01T09:02:39.829Z,19.43
2023-03-01T09:05:08.527Z,20.97
2023-03-01T09:07:36.942Z,20.93
2023-03-01T09:10:06.160Z,21.37
2023-03-01T09:12:34.598Z,19.10
2023-03-01T09:15:03.038Z,21.07
2023-03-01T09:17:31.364Z,21.50
2023-03-01T09:20:01.328Z,21.17
2023-03-01T09:22:29.810Z,19.70
2023-03-01T09:25:00.124Z,21.50
2023-03-01T09:27:28.720Z,20.70
2023-03-01T09:29:57.254Z,20.10
2023-03-01T09:32:25.806Z,21.20
2023-03-01T09:35:05.532Z,19.43
2023-03-01T09:37:36.071Z,20.53
2023-03-01T09:40:05.459Z,19.20
2023-03-01T09:42:34.975Z,21.90
2023-03-01T09:45:05.390Z,20.87
2023-03-01T09:47:35.054Z,21.47
2023-03-01T09:50:06.776Z,20.87
2023-03-01T09:52:41.340Z,19.50
2023-03-01T09:55:11.944Z,21.83
2023-03-01T09:57:44.340Z,22.30
2023-03-01T10:00:25.289Z,18.67
2023-03-01T10:02:55.136Z,21.27
2023-03-01T10:05:41.740Z,21.90
2023-03-01T10:08:28.046Z,22.13
2023-03-01T10:10:58.054Z,21.00
2023-03-01T10:13:28.524Z,19.47
2023-03-01T10:15:58.851Z,20.77
2023-03-01T10:18:28.183Z,20.90
2023-03-01T10:20:59.455Z,21.60
2023-03-01T10:23:29.148Z,20.30
2023-03-01T10:26:09.417Z,20.67
2023-03-01T10:28:44.461Z,20.90
2023-03-01T10:31:15.017Z,20.10
2023-03-01T10:33:44.027Z,20.10
2023-03-01T10:36:12.483Z,19.07
2023-03-01T10:38:53.300Z,18.57
2023-03-01T10:41:25.284Z,21.67
2023-03-01T10:43:54.664Z,20.87
2023-03-01T10:46:27.041Z,20.57
2023-03-01T10:49:09.160Z,21.73
2023-03-01T10:51:37.590Z,21.20
2023-03-01T10:54:07.229Z,23.50
2023-03-01T10:56:48.436Z,22.70
2023-03-01T10:59:22.668Z,22.73
2023-03-01T11:02:12.134Z,23.00
2023-03-01T11:04:58.799Z,23.03
2023-03-01T11:07:27.384Z,22.20
2023-03-01T11:09:55.989Z,22.53
2023-03-01T11:12:27.000Z,22.53
2023-03-01T11:14:56.556Z,20.53
2023-03-01T11:17:27.384Z,23.60
2023-03-01T11:20:13.517Z,19.87
2023-03-01T11:22:47.277Z,21.57
2023-03-01T11:25:16.158Z,19.13
2023-03-01T11:27:47.259Z,20.27
2023-03-01T11:30:19.386Z,19.13
2023-03-01T11:32:50.278Z,19.80
2023-03-01T11:35:20.685Z,18.37
2023-03-01T11:37:56.165Z,19.03
2023-03-01T11:40:26.150Z,20.40
2023-03-01T11:43:14.713Z,19.27
2023-03-01T11:45:50.808Z,19.43
2023-03-01T11:48:48.835Z,19.60
2023-03-01T11:51:21.967Z,19.20
2023-03-01T11:53:56.434Z,19.70
2023-03-01T11:56:29.901Z,19.70
2023-03-01T11:59:06.515Z,19.67
2023-03-01T12:01:47.072Z,19.03
2023-03-01T12:04:26.301Z,18.70
2023-03-01T12:06:58.837Z,19.03
2023-03-01T12:09:34.024Z,19.00
2023-03-01T12:12:11.620Z,18.67
2023-03-01T12:14:50.550Z,18.67
2023-03-01T12:17:30.220Z,18.63
2023-03-01T12:20:10.242Z,20.00
2023-03-01T12:22:41.740Z,18.07
2023-03-01T12:25:24.925Z,18.63
2023-03-01T12:28:08.170Z,19.20
2023-03-01T12:30:42.361Z,18.90
2023-03-01T12:33:18.806Z,18.10
2023-03-01T12:35:57.375Z,17.03
2023-03-01T12:38:36.118Z,19.80
2023-03-01T12:41:10.916Z,19.57
2023-03-01T12:43:44.396Z,20.10
2023-03-01T12:46:29.177Z,19.43
2023-03-01T12:49:02.418Z,21.37
2023-03-01T12:51:32.788Z,21.63
2023-03-01T12:54:02.645Z,21.07
2023-03-01T12:56:33.360Z,20.00
2023-03-01T12:59:04.891Z,22.03
2023-03-01T13:01:38.835Z,19.80
2023-03-01T13:04:20.956Z,21.30
2023-03-01T13:06:57.322Z,20.50
2023-03-01T13:09:28.555Z,20.40
2023-03-01T13:11:56.873Z,20.87
2023-03-01T13:14:38.513Z,20.90
2023-03-01T13:17:30.362Z,22.03
2023-03-01T13:19:59.806Z,21.80
2023-03-01T13:22:30.062Z,21.87
2023-03-01T13:25:04.492Z,21.13
2023-03-01T13:27:33.357Z,21.83
2023-03-01T13:30:06.882Z,23.20
2023-03-01T13:32:44.471Z,20.30
2023-03-01T13:35:34.403Z,21.00
2023-03-01T13:38:28.805Z,21.57
2023-03-01T13:41:02.790Z,30.80
2023-03-01T13:43:35.587Z,25.43
2023-03-01T13:46:05.348Z,22.90
2023-03-01T13:48:34.358Z,21.63
2023-03-01T13:51:04.614Z,21.87
2023-03-01T13:53:34.315Z,20.17
2023-03-01T13:56:09.842Z,20.00
2023-03-01T13:58:47.525Z,22.27
2023-03-01T14:01:24.399Z,23.20
2023-03-01T14:03:52.891Z,23.43
2023-03-01T14:06:23.376Z,20.40
2023-03-01T14:08:53.226Z,21.10
2023-03-01T14:11:31.478Z,22.80
2023-03-01T14:14:09.180Z,21.10
2023-03-01T14:16:41.933Z,23.23
2023-03-01T14:19:32.018Z,22.70
2023-03-01T14:22:05.138Z,23.57
2023-03-01T14:24:34.848Z,23.07
2023-03-01T14:27:06.583Z,23.10
2023-03-01T14:29:37.229Z,20.67
2023-03-01T14:32:19.278Z,22.57
2023-03-01T14:34:48.066Z,22.97
2023-03-01T14:37:24.333Z,24.70
2023-03-01T14:39:53.137Z,25.10
2023-03-01T14:42:24.211Z,22.83
2023-03-01T14:44:53.652Z,24.43
2023-03-01T14:47:28.012Z,23.17
2023-03-01T14:49:59.046Z,23.20
2023-03-01T14:52:31.955Z,22.57
2023-03-01T14:55:00.446Z,22.27
2023-03-01T14:57:30.074Z,24.67
2023-03-01T15:00:01.509Z,23.63
2023-03-01T15:02:30.984Z,23.53
2023-03-01T15:05:01.744Z,23.60
2023-03-01T15:07:32.286Z,23.80
2023-03-01T15:10:00.909Z,23.43
2023-03-01T15:12:41.783Z,23.40
2023-03-01T15:15:23.275Z,25.80
2023-03-01T15:17:56.199Z,22.50
2023-03-01T15:20:26.846Z,22.77
2023-03-01T15:22:55.725Z,23.60
2023-03-01T15:25:26.006Z,22.80
2023-03-01T15:27:56.645Z,24.03
2023-03-01T15:30:26.640Z,23.80
2023-03-01T15:33:09.909Z,24.43
2023-03-01T15:35:42.725Z,23.83
2023-03-01T15:38:26.235Z,22.80
2023-03-01T15:40:54.968Z,23.63
2023-03-01T15:43:41.771Z,21.90
2023-03-01T15:46:19.170Z,23.13
2023-03-01T15:48:48.208Z,22.73
2023-03-01T15:51:16.872Z,23.13
2023-03-01T15:53:54.183Z,25.27
2023-03-01T15:56:23.279Z,22.50
2023-03-01T15:58:51.617Z,24.53
2023-03-01T16:01:22.076Z,23.13
2023-03-01T16:03:50.431Z,24.07
2023-03-01T16:06:18.746Z,24.07
2023-03-01T16:08:47.128Z,26.70
2023-03-01T16:11:17.398Z,23.90
2023-03-01T16:13:46.372Z,26.00
2023-03-01T16:16:17.275Z,24.10
2023-03-01T16:18:48.556Z,23.07
2023-03-01T16:21:18.094Z,23.27
2023-03-01T16:23:47.130Z,25.53
2023-03-01T16:26:15.866Z,24.30
2023-03-01T16:28:44.667Z,23.60
2023-03-01T16:31:13.517Z,25.73
2023-03-01T16:33:42.188Z,22.97
2023-03-01T16:36:13.371Z,22.67
2023-03-01T16:38:41.845Z,24.30
2023-03-01T16:41:14.126Z,21.20
2023-03-01T16:43:42.916Z,22.30
2023-03-01T16:46:14.345Z,26.23
2023-03-01T16:48:42.922Z,21.00
2023-03-01T16:51:12.991Z,22.90
2023-03-01T16:53:41.974Z,24.80
2023-03-01T16:56:11.770Z,21.80
2023-03-01T16:58:40.719Z,21.63
2023-03-01T17:01:10.154Z,20.93
2023-03-01T17:03:38.651Z,21.37
2023-03-01T17:06:07.435Z,23.77
2023-03-01T17:08:37.294Z,21.20
2023-03-01T17:11:06.850Z,20.13
2023-03-01T17:13:35.385Z,22.03
2023-03-01T17:16:05.529Z,21.40
2023-03-01T17:18:34.149Z,22.43
2023-03-01T17:21:02.683Z,22.23
2023-03-01T17:23:31.553Z,22.30
2023-03-01T17:26:01.273Z,23.10
2023-03-01T17:28:30.685Z,21.27
2023-03-01T17:30:58.983Z,24.00
2023-03-01T17:33:27.250Z,25.97
2023-03-01T17:35:55.603Z,26.20
2023-03-01T17:38:23.989Z,23.43
2023-03-01T17:40:52.334Z,24.90
2023-03-01T17:43:22.053Z,29.77
2023-03-01T17:45:52.384Z,26.13
2023-03-01T17:48:20.898Z,36.50
2023-03-01T17:50:49.213Z,23.70
2023-03-01T17:53:18.194Z,24.87
2023-03-01T17:55:49.472Z,26.13
2023-03-01T17:58:22.717Z,24.90
2023-03-01T18:00:52.699Z,28.40
2023-03-01T18:03:22.104Z,26.30
2023-03-01T18:05:50.778Z,23.93
2023-03-01T18:08:19.121Z,21.73
2023-03-01T18:10:47.666Z,23.20
2023-03-01T18:13:19.359Z,27.80
2023-03-01T18:15:50.556Z,27.43
2023-03-01T18:18:20.322Z,27.60
2023-03-01T18:20:56.765Z,27.40
2023-03-01T18:23:25.387Z,31.27
2023-03-01T18:25:56.098Z,30.20
2023-03-01T18:28:25.551Z,28.13
2023-03-01T18:30:57.740Z,26.47
2023-03-01T18:33:27.889Z,23.90
2023-03-01T18:35:56.465Z,31.70
2023-03-01T18:38:25.202Z,26.47
2023-03-01T18:40:54.052Z,22.80
2023-03-01T18:43:22.611Z,24.47
2023-03-01T18:45:51.083Z,23.27
2023-03-01T18:48:19.469Z,24.43
2023-03-01T18:50:49.410Z,24.27
2023-03-01T18:53:17.819Z,23.20
2023-03-01T18:55:46.100Z,22.30
2023-03-01T18:58:14.387Z,23.60
2023-03-01T19:00:42.744Z,22.97
2023-03-01T19:03:12.243Z,23.23
2023-03-01T19:05:42.699Z,28.43
2023-03-01T19:08:12.553Z,24.53
2023-03-01T19:10:40.960Z,25.77
2023-03-01T19:13:09.326Z,24.63
2023-03-01T19:15:37.716Z,25.90
2023-03-01T19:18:06.080Z,25.33
2023-03-01T19:20:34.251Z,26.10
2023-03-01T19:23:02.556Z,23.47
2023-03-01T19:25:32.236Z,24.63
2023-03-01T19:28:00.680Z,24.07
2023-03-01T19:30:29.193Z,26.10
2023-03-01T19:32:57.731Z,24.07
2023-03-01T19:35:26.025Z,23.83
2023-03-01T19:37:54.353Z,24.73
2023-03-01T19:40:22.614Z,24.50
2023-03-01T19:42:52.422Z,24.23
2023-03-01T19:45:31.824Z,23.60
2023-03-01T19:48:01.621Z,30.23
2023-03-01T19:50:30.037Z,29.43
2023-03-01T19:52:58.467Z,30.13
2023-03-01T19:55:26.804Z,27.10
2023-03-01T19:57:56.513Z,31.70
2023-03-01T20:00:25.048Z,26.37
2023-03-01T20:02:53.498Z,38.67
2023-03-01T20:05:21.835Z,42.30
2023-03-01T20:07:51.060Z,30.47
2023-03-01T20:10:19.538Z,30.43
2023-03-01T20:12:47.842Z,41.97
2023-03-01T20:15:17.571Z,49.53
2023-03-01T20:17:45.954Z,33.73
2023-03-01T20:20:14.750Z,28.47
2023-03-01T20:22:43.275Z,29.03
2023-03-01T20:25:11.940Z,26.63
2023-03-01T20:27:40.277Z,26.30
2023-03-01T20:30:09.486Z,29.53
2023-03-01T20:32:39.268Z,26.70
2023-03-01T20:35:08.045Z,30.13
2023-03-01T20:37:36.457Z,25.73
2023-03-01T20:40:05.012Z,28.20
2023-03-01T20:42:33.350Z,28.53
2023-03-01T20:45:01.700Z,30.43
2023-03-01T20:47:30.033Z,27.10
2023-03-01T20:50:01.600Z,29.13
2023-03-01T20:52:36.663Z,25.43
2023-03-01T20:55:11.272Z,30.13
2023-03-01T20:57:39.785Z,25.00
2023-03-01T21:00:08.891Z,32.23
2023-03-01T21:02:38.872Z,32.83
2023-03-01T21:05:09.131Z,27.53
2023-03-01T21:07:37.423Z,22.50
2023-03-01T21:10:06.160Z,27.93
2023-03-01T21:12:34.604Z,24.90
2023-03-01T21:15:02.983Z,22.53
2023-03-01T21:17:31.328Z,23.33
2023-03-01T21:19:59.744Z,24.77
2023-03-01T21:22:30.322Z,25.67
2023-03-01T21:24:58.983Z,26.77
2023-03-01T21:27:27.389Z,23.77
2023-03-01T21:29:55.765Z,23.17
2023-03-01T21:32:24.141Z,25.23
2023-03-01T21:34:52.632Z,22.87
2023-03-01T21:37:22.401Z,21.47
2023-03-01T21:39:52.204Z,22.60
2023-03-01T21:42:20.547Z,22.27
2023-03-01T21:44:48.996Z,21.63
2023-03-01T21:47:17.395Z,22.50
2023-03-01T21:49:45.771Z,23.03
2023-03-01T21:52:16.825Z,23.83
2023-03-01T21:54:45.703Z,25.20
2023-03-01T21:57:15.748Z,23.80
2023-03-01T21:59:44.090Z,25.70
2023-03-01T22:02:14.302Z,23.63
2023-03-01T22:04:42.747Z,21.80
2023-03-01T22:07:11.961Z,22.83
2023-03-01T22:09:40.572Z,28.83
2023-03-01T22:12:09.195Z,24.50
2023-03-01T22:14:40.527Z,23.50
2023-03-01T22:17:08.934Z,22.83
2023-03-01T22:19:37.419Z,25.13
2023-03-01T22:22:05.846Z,24.37
2023-03-01T22:24:34.327Z,23.60
2023-03-01T22:27:02.759Z,24.30
2023-03-01T22:29:31.114Z,23.07
2023-03-01T22:32:01.093Z,23.60
2023-03-01T22:34:30.684Z,23.17
2023-03-01T22:36:59.247Z,25.60
2023-03-01T22:39:27.680Z,29.73
2023-03-01T22:41:56.239Z,27.07
2023-03-01T22:44:25.293Z,32.67
2023-03-01T22:46:54.144Z,26.90
2023-03-01T22:49:24.030Z,32.70
2023-03-01T22:51:53.296Z,26.97
2023-03-01T22:54:21.647Z,24.90
2023-03-01T22:56:50.137Z,27.50
2023-03-01T22:59:22.549Z,35.90
2023-03-01T23:01:52.166Z,38.90
2023-03-01T23:04:21.310Z,34.57
2023-03-01T23:06:53.860Z,33.40
2023-03-01T23:09:23.673Z,34.27
2023-03-01T23:11:52.117Z,22.93
2023-03-01T23:14:21.249Z,27.57
2023-03-01T23:16:50.041Z,28.17
2023-03-01T23:19:18.873Z,30.83
2023-03-01T23:21:50.266Z,22.23
2023-03-01T23:24:21.368Z,22.47
2023-03-01T23:26:53.304Z,23.90
2023-03-01T23:29:22.231Z,21.40
2023-03-01T23:31:50.741Z,25.07
2023-03-01T23:34:19.353Z,23.77
2023-03-01T23:36:47.781Z,20.10
2023-03-01T23:39:16.308Z,20.47
2023-03-01T23:41:46.290Z,20.53
2023-03-01T23:44:17.224Z,20.63
2023-03-01T23:46:46.099Z,20.37
2023-03-01T23:49:15.149Z,24.90
2023-03-01T23:51:44.660Z,21.20
2023-03-01T23:54:14.046Z,19.40
2023-03-01T23:56:43.461Z,22.73
2023-03-01T23:59:15.148Z,19.00
